createdAt,value
2023-02-02T00:01:58.333Z,89.50
2023-02-02T00:06:05.814Z,89.44
2023-02-02T00:10:10.094Z,89.77
2023-02-02T00:14:13.964Z,89.87
2023-02-02T00:18:19.654Z,90.12
2023-02-02T00:22:24.687Z,89.32
2023-02-02T00:26:29.460Z,90.34
2023-02-02T00:30:33.229Z,89.83
2023-02-02T00:34:36.664Z,90.10
2023-02-02T00:38:41.966Z,89.81
2023-02-02T00:42:49.358Z,90.16
2023-02-02T00:46:53.213Z,89.56
2023-02-02T00:51:02.401Z,90.67
2023-02-02T00:55:08.583Z,90.49
2023-02-02T00:59:11.990Z,90.38
2023-02-02T01:03:20.913Z,90.21
2023-02-02T01:07:24.590Z,90.41
2023-02-02T01:11:31.135Z,90.00
2023-02-02T01:15:34.616Z,90.63
2023-02-02T01:19:38.212Z,90.42
2023-02-02T01:23:41.899Z,90.68
2023-02-02T01:27:50.063Z,90.77
2023-02-02T01:31:57.548Z,90.74
2023-02-02T01:36:06.665Z,90.09
2023-02-02T01:40:11.725Z,90.43
2023-02-02T01:45:05.207Z,90.41
2023-02-02T01:49:14.988Z,90.43
2023-02-02T01:53:20.106Z,90.20
2023-02-02T01:57:29.230Z,90.62
2023-02-02T02:01:34.381Z,90.71
2023-02-02T02:05:45.851Z,90.40
2023-02-02T02:09:49.823Z,90.98
2023-02-02T02:14:17.114Z,90.99
2023-02-02T02:18:33.342Z,90.43
2023-02-02T02:23:19.363Z,90.67
2023-02-02T02:27:37.576Z,90.57
2023-02-02T02:32:08.460Z,90.56
2023-02-02T02:36:17.101Z,91.15
2023-02-02T02:40:26.216Z,91.10
2023-02-02T02:44:31.213Z,91.25
2023-02-02T02:48:36.215Z,91.42
2023-02-02T02:52:40.053Z,91.52
2023-02-02T02:56:58.177Z,91.70
2023-02-02T03:01:07.857Z,91.80
2023-02-02T03:05:22.954Z,91.37
2023-02-02T03:09:32.944Z,91.55
2023-02-02T03:13:36.110Z,92.08
2023-02-02T03:17:39.887Z,91.57
2023-02-02T03:21:44.786Z,91.88
2023-02-02T03:25:48.458Z,90.87
2023-02-02T03:29:51.987Z,90.71
2023-02-02T03:33:55.584Z,91.47
2023-02-02T03:38:00.284Z,90.96
2023-02-02T03:42:03.697Z,91.31
2023-02-02T03:46:08.524Z,90.81
2023-02-02T03:50:12.955Z,90.96
2023-02-02T03:54:18.007Z,91.15
2023-02-02T03:58:22.585Z,91.03
2023-02-02T04:02:26.260Z,91.76
2023-02-02T04:06:30.750Z,91.59
2023-02-02T04:10:35.911Z,92.18
2023-02-02T04:14:39.674Z,91.67
2023-02-02T04:18:42.840Z,92.23
2023-02-02T04:22:46.369Z,91.67
2023-02-02T04:26:51.395Z,91.57
2023-02-02T04:30:56.055Z,91.64
2023-02-02T04:34:59.689Z,92.56
2023-02-02T04:39:03.433Z,92.27
2023-02-02T04:43:08.518Z,91.96
2023-02-02T04:47:14.717Z,91.64
2023-02-02T04:51:24.383Z,92.27
2023-02-02T04:55:27.933Z,91.76
2023-02-02T04:59:33.386Z,92.17
2023-02-02T05:03:36.725Z,91.16
2023-02-02T05:07:41.039Z,91.78
2023-02-02T05:11:45.414Z,91.67
2023-02-02T05:15:50.797Z,90.90
2023-02-02T05:19:55.313Z,91.08
2023-02-02T05:23:59.971Z,91.78
2023-02-02T05:28:03.663Z,90.90
2023-02-02T05:32:11.088Z,90.59
2023-02-02T05:36:14.952Z,90.98
2023-02-02T05:40:19.010Z,90.57
2023-02-02T05:44:22.202Z,91.01
2023-02-02T05:48:27.858Z,90.41
2023-02-02T05:52:34.612Z,90.80
2023-02-02T05:56:38.293Z,90.88
2023-02-02T06:00:41.754Z,90.54
2023-02-02T06:04:47.711Z,90.81
2023-02-02T06:08:51.153Z,90.70
2023-02-02T06:12:54.767Z,90.61
2023-02-02T06:16:58.664Z,90.50
2023-02-02T06:21:05.057Z,89.97
2023-02-02T06:25:10.334Z,90.68
2023-02-02T06:29:14.272Z,89.90
2023-02-02T06:33:18.140Z,90.16
2023-02-02T06:37:30.821Z,90.07
2023-02-02T06:41:34.284Z,90.25
2023-02-02T06:45:40.407Z,90.47
2023-02-02T06:49:43.321Z,89.87
2023-02-02T06:53:48.513Z,89.79
2023-02-02T06:57:57.699Z,89.86
2023-02-02T07:02:00.796Z,89.97
2023-02-02T07:06:13.118Z,89.97
2023-02-02T07:11:11.546Z,89.95
2023-02-02T07:14:41.928Z,90.08
2023-02-02T07:18:45.366Z,89.82
2023-02-02T07:22:48.653Z,89.54
2023-02-02T07:26:53.016Z,90.04
2023-02-02T07:30:56.103Z,89.88
2023-02-02T07:34:59.196Z,89.19
2023-02-02T07:39:04.778Z,90.10
2023-02-02T07:43:09.344Z,89.35
2023-02-02T07:47:12.143Z,90.13
2023-02-02T07:51:16.251Z,89.17
2023-02-02T07:55:19.301Z,89.56
2023-02-02T07:59:23.835Z,88.76
2023-02-02T08:03:26.875Z,88.85
2023-02-02T08:07:32.304Z,89.43
2023-02-02T08:11:35.798Z,89.69
2023-02-02T08:15:40.148Z,88.77
2023-02-02T08:19:43.125Z,89.07
2023-02-02T08:23:46.790Z,89.13
2023-02-02T08:27:49.591Z,89.59
2023-02-02T08:31:54.671Z,88.03
2023-02-02T08:35:57.513Z,88.91
2023-02-02T08:40:00.540Z,89.05
2023-02-02T08:44:06.782Z,88.75
2023-02-02T08:48:12.856Z,89.23
2023-02-02T08:52:15.949Z,89.49
2023-02-02T08:56:20.533Z,89.61
2023-02-02T09:00:23.900Z,90.11
2023-02-02T09:04:28.101Z,89.95
2023-02-02T09:08:31.795Z,89.64
2023-02-02T09:12:34.797Z,89.37
2023-02-02T09:16:37.982Z,89.41
2023-02-02T09:20:43.575Z,88.51
2023-02-02T09:24:46.559Z,88.65
2023-02-02T09:28:51.757Z,88.06
2023-02-02T09:32:54.521Z,87.20
2023-02-02T09:37:05.675Z,86.15
2023-02-02T09:41:35.213Z,85.58
2023-02-02T09:45:43.942Z,85.89
2023-02-02T09:49:54.212Z,84.81
2023-02-02T09:54:01.132Z,85.46
2023-02-02T09:58:08.464Z,86.32
2023-02-02T10:02:16.986Z,87.07
2023-02-02T10:06:28.311Z,86.64
2023-02-02T10:10:36.585Z,86.68
2023-02-02T10:14:46.260Z,85.65
2023-02-02T10:18:53.087Z,86.29
2023-02-02T10:22:58.128Z,86.40
2023-02-02T10:27:06.138Z,85.55
2023-02-02T10:31:17.129Z,86.38
2023-02-02T10:35:37.259Z,86.89
2023-02-02T10:39:52.384Z,86.82
2023-02-02T10:44:04.652Z,87.08
2023-02-02T10:48:15.007Z,86.91
2023-02-02T10:52:19.863Z,88.01
2023-02-02T10:56:27.796Z,88.82
2023-02-02T11:00:36.435Z,89.14
2023-02-02T11:04:56.758Z,89.64
2023-02-02T11:09:01.016Z,89.94
2023-02-02T11:13:03.927Z,90.53
2023-02-02T11:17:18.212Z,89.75
2023-02-02T11:21:23.540Z,89.73
2023-02-02T11:25:29.354Z,88.23
2023-02-02T11:29:37.303Z,87.77
2023-02-02T11:33:41.828Z,87.10
2023-02-02T11:38:01.236Z,87.72
2023-02-02T11:42:07.542Z,86.56
2023-02-02T11:46:19.210Z,85.86
2023-02-02T11:50:30.023Z,84.21
2023-02-02T11:54:38.699Z,83.84
2023-02-02T11:58:46.222Z,83.81
2023-02-02T12:02:50.263Z,84.55
2023-02-02T12:06:54.837Z,84.26
2023-02-02T12:11:01.912Z,84.75
2023-02-02T12:15:13.258Z,84.20
2023-02-02T12:19:29.501Z,84.95
2023-02-02T12:23:44.399Z,84.69
2023-02-02T12:27:54.554Z,84.41
2023-02-02T12:32:16.427Z,84.17
2023-02-02T12:36:27.512Z,84.34
2023-02-02T12:40:48.419Z,83.48
2023-02-02T12:45:02.886Z,84.31
2023-02-02T12:49:24.384Z,82.99
2023-02-02T12:53:39.860Z,83.67
2023-02-02T12:57:51.920Z,81.85
2023-02-02T13:02:03.621Z,81.64
2023-02-02T13:06:18.359Z,83.35
2023-02-02T13:10:26.372Z,80.45
2023-02-02T13:14:38.704Z,83.22
2023-02-02T13:18:43.953Z,83.14
2023-02-02T13:22:49.155Z,83.23
2023-02-02T13:26:52.453Z,82.66
2023-02-02T13:30:59.138Z,82.97
2023-02-02T13:35:05.482Z,81.95
2023-02-02T13:39:16.299Z,81.12
2023-02-02T13:43:38.833Z,82.31
2023-02-02T13:47:49.963Z,81.81
2023-02-02T13:52:18.855Z,82.02
2023-02-02T13:56:35.366Z,81.97
2023-02-02T14:00:38.442Z,82.31
2023-02-02T14:04:43.572Z,82.09
2023-02-02T14:08:49.448Z,83.48
2023-02-02T14:12:52.642Z,83.39
2023-02-02T14:16:56.808Z,83.21
2023-02-02T14:21:01.498Z,83.78
2023-02-02T14:25:05.699Z,83.04
2023-02-02T14:29:37.120Z,82.83
2023-02-02T14:33:47.772Z,82.48
2023-02-02T14:38:04.719Z,82.93
2023-02-02T14:42:37.153Z,84.95
2023-02-02T14:46:40.932Z,84.47
2023-02-02T14:50:47.264Z,84.01
2023-02-02T14:54:51.910Z,84.32
2023-02-02T14:58:56.494Z,84.88
2023-02-02T15:03:29.280Z,84.54
2023-02-02T15:07:52.823Z,84.75
2023-02-02T15:12:20.081Z,84.40
2023-02-02T15:16:26.958Z,85.41
2023-02-02T15:20:31.428Z,84.64
2023-02-02T15:24:36.524Z,85.15
2023-02-02T15:28:44.447Z,85.07
2023-02-02T15:32:48.666Z,84.33
2023-02-02T15:36:54.230Z,84.64
2023-02-02T15:40:57.295Z,84.83
2023-02-02T15:45:01.582Z,84.45
2023-02-02T15:49:36.294Z,85.42
2023-02-02T15:53:49.165Z,86.51
2023-02-02T15:57:54.295Z,86.62
2023-02-02T16:02:06.463Z,86.84
2023-02-02T16:06:10.060Z,86.24
2023-02-02T16:10:20.093Z,86.76
2023-02-02T16:14:23.792Z,86.30
2023-02-02T16:18:28.268Z,87.46
2023-02-02T16:22:32.044Z,88.51
2023-02-02T16:26:36.073Z,89.03
2023-02-02T16:30:39.951Z,89.66
2023-02-02T16:34:47.560Z,89.43
2023-02-02T16:38:53.365Z,89.99
2023-02-02T16:43:05.730Z,90.02
2023-02-02T16:47:09.840Z,90.25
2023-02-02T16:51:28.300Z,91.08
2023-02-02T16:55:48.860Z,90.68
2023-02-02T16:59:54.335Z,91.08
2023-02-02T17:04:00.312Z,91.36
2023-02-02T17:08:08.099Z,90.83
2023-02-02T17:12:33.590Z,91.38
2023-02-02T17:16:37.502Z,90.49
2023-02-02T17:20:41.716Z,90.33
2023-02-02T17:24:48.702Z,90.57
2023-02-02T17:28:56.841Z,89.51
2023-02-02T17:33:00.177Z,90.36
2023-02-02T17:37:03.387Z,90.14
2023-02-02T17:41:08.645Z,89.57
2023-02-02T17:45:15.774Z,89.96
2023-02-02T17:49:20.470Z,89.59
2023-02-02T17:53:24.296Z,89.80
2023-02-02T17:57:29.023Z,89.66
2023-02-02T18:01:32.835Z,89.90
2023-02-02T18:05:35.938Z,89.41
2023-02-02T18:09:41.575Z,89.38
2023-02-02T18:13:52.560Z,89.75
2023-02-02T18:17:56.781Z,88.80
2023-02-02T18:21:59.637Z,89.48
2023-02-02T18:26:10.380Z,88.63
2023-02-02T18:30:15.950Z,89.28
2023-02-02T18:34:19.679Z,89.08
2023-02-02T18:38:24.161Z,88.98
2023-02-02T18:42:30.273Z,88.16
2023-02-02T18:46:35.238Z,88.64
2023-02-02T18:50:38.783Z,88.35
2023-02-02T18:54:41.755Z,88.66
2023-02-02T18:58:45.408Z,88.20
2023-02-02T19:02:50.045Z,87.95
2023-02-02T19:07:11.028Z,88.04
2023-02-02T19:11:17.677Z,88.23
2023-02-02T19:15:21.250Z,87.66
2023-02-02T19:19:29.355Z,88.05
2023-02-02T19:23:33.492Z,87.99
2023-02-02T19:27:36.407Z,88.55
2023-02-02T19:31:40.437Z,87.60
2023-02-02T19:35:46.744Z,88.05
2023-02-02T19:39:50.404Z,87.72
2023-02-02T19:43:58.665Z,88.35
2023-02-02T19:48:04.081Z,88.35
2023-02-02T19:52:18.574Z,89.00
2023-02-02T19:56:25.556Z,89.29
2023-02-02T20:00:30.966Z,89.24
2023-02-02T20:04:35.110Z,89.49
2023-02-02T20:08:40.764Z,90.05
2023-02-02T20:12:44.918Z,90.18
2023-02-02T20:16:49.406Z,90.11
2023-02-02T20:20:54.668Z,90.49
2023-02-02T20:25:00.548Z,90.14
2023-02-02T20:29:16.479Z,90.10
2023-02-02T20:33:25.797Z,90.66
2023-02-02T20:37:30.876Z,91.13
2023-02-02T20:41:35.850Z,91.43
2023-02-02T20:45:39.473Z,91.44
2023-02-02T20:49:42.749Z,91.49
2023-02-02T20:53:49.520Z,91.83
2023-02-02T20:57:54.339Z,91.58
2023-02-02T21:01:57.817Z,91.59
2023-02-02T21:06:02.684Z,92.07
2023-02-02T21:10:06.763Z,92.48
2023-02-02T21:14:11.876Z,93.03
2023-02-02T21:18:19.264Z,92.94
2023-02-02T21:22:25.418Z,93.01
2023-02-02T21:26:30.874Z,92.64
2023-02-02T21:30:36.262Z,93.08
2023-02-02T21:34:39.761Z,92.41
2023-02-02T21:38:43.185Z,92.47
2023-02-02T21:42:50.597Z,92.62
2023-02-02T21:46:55.509Z,92.89
2023-02-02T21:51:16.794Z,92.95
2023-02-02T21:55:35.682Z,92.28
2023-02-02T21:59:39.386Z,92.67
2023-02-02T22:03:47.163Z,92.61
2023-02-02T22:07:53.660Z,92.68
2023-02-02T22:11:59.489Z,92.83
2023-02-02T22:16:03.901Z,92.70
2023-02-02T22:20:20.057Z,92.73
2023-02-02T22:24:23.570Z,92.65
2023-02-02T22:28:27.730Z,92.46
2023-02-02T22:32:31.019Z,92.90
2023-02-02T22:36:36.977Z,92.30
2023-02-02T22:40:40.328Z,92.81
2023-02-02T22:44:44.524Z,92.52
2023-02-02T22:48:47.596Z,92.44
2023-02-02T22:52:52.947Z,92.97
2023-02-02T22:56:56.358Z,92.40
2023-02-02T23:00:59.699Z,92.91
2023-02-02T23:05:03.192Z,93.43
2023-02-02T23:09:07.952Z,93.24
2023-02-02T23:13:11.263Z,93.05
2023-02-02T23:17:17.156Z,93.42
2023-02-02T23:21:21.455Z,93.17
2023-02-02T23:25:26.330Z,93.14
2023-02-02T23:29:29.688Z,92.81
2023-02-02T23:33:32.949Z,93.14
2023-02-02T23:37:36.305Z,93.01
2023-02-02T23:41:40.897Z,93.67
2023-02-02T23:45:44.108Z,93.74
2023-02-02T23:49:47.831Z,94.10
2023-02-02T23:53:51.427Z,94.63
2023-02-02T23:57:55.588Z,94.63
